createdAt,value
2022-07-29T00:00:53.362Z,86.60
2022-07-29T00:03:20.469Z,86.90
2022-07-29T00:05:47.754Z,87.50
2022-07-29T00:08:16.759Z,87.00
2022-07-29T00:10:44.034Z,86.60
2022-07-29T00:13:11.317Z,86.80
2022-07-29T00:15:38.543Z,86.90
2022-07-29T00:18:05.789Z,86.90
2022-07-29T00:20:33.203Z,86.50
2022-07-29T00:23:00.435Z,86.80
2022-07-29T00:25:27.634Z,87.20
2022-07-29T00:27:54.740Z,87.50
2022-07-29T00:30:21.868Z,87.90
2022-07-29T00:32:49.222Z,87.90
2022-07-29T00:35:34.838Z,88.60
2022-07-29T00:38:02.206Z,87.70
2022-07-29T00:40:29.538Z,88.00
2022-07-29T00:42:56.727Z,88.50
2022-07-29T00:45:23.837Z,87.80
2022-07-29T00:47:51.666Z,88.00
2022-07-29T00:50:19.584Z,88.30
2022-07-29T00:52:47.033Z,88.40
2022-07-29T00:55:17.086Z,88.50
2022-07-29T00:57:45.697Z,88.70
2022-07-29T01:00:19.557Z,88.90
2022-07-29T01:02:49.480Z,89.00
2022-07-29T01:05:19.953Z,89.20
2022-07-29T01:07:49.345Z,89.20
2022-07-29T01:10:19.612Z,89.30
2022-07-29T01:12:50.933Z,89.30
2022-07-29T01:15:18.265Z,89.40
2022-07-29T01:18:12.556Z,89.50
2022-07-29T01:21:00.264Z,89.40
2022-07-29T01:23:27.812Z,89.60
2022-07-29T01:26:20.485Z,89.30
2022-07-29T01:29:00.213Z,89.60
2022-07-29T01:31:49.169Z,89.60
2022-07-29T01:34:37.577Z,89.90
2022-07-29T01:37:42.796Z,89.70
2022-07-29T01:40:19.440Z,89.90
2022-07-29T01:42:52.663Z,89.90
2022-07-29T01:45:38.238Z,89.60
2022-07-29T01:48:13.280Z,89.70
2022-07-29T01:51:00.239Z,89.50
2022-07-29T01:53:36.439Z,89.80
2022-07-29T01:56:05.950Z,89.90
2022-07-29T01:58:34.296Z,89.70
2022-07-29T02:01:03.156Z,90.00
2022-07-29T02:03:31.412Z,89.80
2022-07-29T02:06:02.626Z,89.60
2022-07-29T02:08:31.374Z,89.50
2022-07-29T02:11:01.017Z,89.80
2022-07-29T02:13:30.257Z,89.40
2022-07-29T02:15:59.728Z,89.50
2022-07-29T02:18:29.307Z,89.60
2022-07-29T02:20:58.389Z,89.40
2022-07-29T02:23:27.429Z,89.70
2022-07-29T02:25:58.518Z,89.80
2022-07-29T02:28:28.429Z,90.00
2022-07-29T02:30:59.337Z,89.90
2022-07-29T02:33:27.544Z,90.20
2022-07-29T02:35:56.086Z,89.90
2022-07-29T02:38:43.514Z,89.90
2022-07-29T02:41:14.773Z,90.00
2022-07-29T02:43:46.170Z,90.30
2022-07-29T02:46:28.318Z,90.20
2022-07-29T02:49:10.610Z,90.40
2022-07-29T02:51:52.534Z,90.50
2022-07-29T02:54:34.506Z,91.00
2022-07-29T02:57:07.477Z,90.90
2022-07-29T02:59:38.221Z,90.70
2022-07-29T03:02:08.474Z,90.80
2022-07-29T03:04:36.643Z,90.80
2022-07-29T03:07:06.292Z,90.80
2022-07-29T03:09:34.176Z,90.80
2022-07-29T03:12:02.051Z,90.90
2022-07-29T03:14:29.752Z,90.80
2022-07-29T03:16:57.546Z,90.50
2022-07-29T03:19:31.105Z,90.80
2022-07-29T03:21:59.973Z,91.10
2022-07-29T03:24:34.982Z,90.50
2022-07-29T03:27:07.947Z,90.60
2022-07-29T03:29:35.875Z,91.00
2022-07-29T03:32:08.156Z,90.80
2022-07-29T03:34:37.549Z,90.80
2022-07-29T03:37:05.293Z,91.20
2022-07-29T03:39:37.651Z,91.30
2022-07-29T03:42:07.939Z,91.00
2022-07-29T03:44:37.341Z,90.90
2022-07-29T03:47:08.056Z,90.70
2022-07-29T03:49:38.252Z,90.70
2022-07-29T03:52:06.392Z,90.60
2022-07-29T03:54:33.969Z,90.80
2022-07-29T03:57:07.036Z,91.00
2022-07-29T03:59:35.252Z,91.40
2022-07-29T04:02:05.595Z,91.10
2022-07-29T04:04:37.321Z,91.30
2022-07-29T04:07:05.217Z,91.30
2022-07-29T04:09:32.722Z,91.00
2022-07-29T04:12:03.083Z,89.40
2022-07-29T04:14:32.891Z,89.40
2022-07-29T04:17:01.098Z,88.60
2022-07-29T04:19:28.488Z,88.50
2022-07-29T04:21:55.924Z,87.90
2022-07-29T04:24:23.145Z,87.20
2022-07-29T04:26:50.873Z,85.50
2022-07-29T04:29:18.273Z,85.00
2022-07-29T04:31:45.928Z,84.60
2022-07-29T04:34:14.990Z,83.30
2022-07-29T04:36:42.472Z,81.10
2022-07-29T04:39:09.614Z,78.10
2022-07-29T04:41:36.769Z,77.50
2022-07-29T04:44:07.117Z,76.20
2022-07-29T04:46:36.194Z,78.20
2022-07-29T04:49:04.390Z,76.00
2022-07-29T04:51:31.745Z,76.40
2022-07-29T04:53:58.963Z,76.10
2022-07-29T04:56:26.315Z,76.40
2022-07-29T04:58:53.472Z,74.70
2022-07-29T05:01:20.871Z,75.00
2022-07-29T05:03:48.009Z,75.40
2022-07-29T05:06:15.071Z,73.40
2022-07-29T05:08:42.335Z,73.10
2022-07-29T05:11:12.167Z,71.70
2022-07-29T05:13:45.224Z,71.70
2022-07-29T05:16:14.500Z,71.90
2022-07-29T05:18:42.209Z,71.70
2022-07-29T05:21:09.484Z,69.40
2022-07-29T05:23:36.858Z,68.40
2022-07-29T05:26:04.210Z,68.40
2022-07-29T05:28:36.234Z,68.50
2022-07-29T05:31:03.613Z,66.90
2022-07-29T05:33:36.521Z,67.00
2022-07-29T05:36:08.481Z,65.50
2022-07-29T05:38:39.087Z,65.10
2022-07-29T05:41:06.828Z,64.70
2022-07-29T05:43:34.188Z,67.60
2022-07-29T05:46:01.344Z,65.70
2022-07-29T05:48:28.737Z,64.60
2022-07-29T05:50:56.107Z,65.20
2022-07-29T05:53:23.881Z,64.80
2022-07-29T05:55:51.098Z,62.80
2022-07-29T05:58:18.220Z,62.60
2022-07-29T06:00:45.643Z,60.80
2022-07-29T06:03:12.915Z,60.60
2022-07-29T06:05:40.559Z,60.60
2022-07-29T06:08:08.548Z,59.10
2022-07-29T06:10:36.822Z,55.10
2022-07-29T06:13:04.184Z,55.40
2022-07-29T06:15:31.474Z,56.30
2022-07-29T06:18:00.685Z,54.80
2022-07-29T06:20:31.561Z,52.90
2022-07-29T06:22:59.514Z,53.70
2022-07-29T06:25:26.995Z,52.50
2022-07-29T06:27:54.227Z,57.50
2022-07-29T06:30:21.355Z,58.50
2022-07-29T06:32:50.935Z,59.10
2022-07-29T06:35:39.081Z,62.40
2022-07-29T06:38:12.064Z,62.60
2022-07-29T06:41:08.869Z,63.70
2022-07-29T06:43:50.682Z,63.50
2022-07-29T06:46:20.336Z,62.60
2022-07-29T06:48:48.723Z,62.90
2022-07-29T06:51:16.401Z,60.50
2022-07-29T06:54:00.514Z,58.00
2022-07-29T06:56:31.999Z,54.90
2022-07-29T06:59:06.614Z,52.70
2022-07-29T07:01:33.903Z,54.10
2022-07-29T07:04:01.041Z,56.30
2022-07-29T07:06:30.474Z,56.00
2022-07-29T07:08:57.864Z,53.60
2022-07-29T07:11:25.293Z,53.70
2022-07-29T07:13:52.523Z,52.20
2022-07-29T07:16:19.735Z,56.50
2022-07-29T07:18:47.016Z,57.30
2022-07-29T07:21:19.139Z,56.50
2022-07-29T07:23:47.336Z,53.90
2022-07-29T07:26:14.832Z,55.00
2022-07-29T07:28:42.088Z,53.90
2022-07-29T07:31:09.238Z,52.30
2022-07-29T07:33:36.450Z,52.50
2022-07-29T07:36:04.423Z,51.10
2022-07-29T07:38:31.467Z,52.00
2022-07-29T07:40:58.726Z,54.30
2022-07-29T07:43:26.057Z,53.10
2022-07-29T07:45:53.206Z,51.20
2022-07-29T07:48:20.767Z,51.10
2022-07-29T07:50:52.763Z,49.80
2022-07-29T07:53:19.984Z,49.10
2022-07-29T07:56:09.571Z,47.90
2022-07-29T07:58:36.377Z,46.00
2022-07-29T08:01:04.351Z,46.20
2022-07-29T08:03:31.485Z,48.10
2022-07-29T08:05:58.682Z,45.20
2022-07-29T08:08:25.883Z,45.40
2022-07-29T08:10:53.212Z,44.10
2022-07-29T08:13:26.841Z,42.10
2022-07-29T08:16:01.550Z,42.00
2022-07-29T08:18:30.657Z,43.40
2022-07-29T08:20:58.160Z,43.80
2022-07-29T08:23:25.515Z,42.90
2022-07-29T08:25:54.807Z,42.70
2022-07-29T08:28:22.219Z,43.80
2022-07-29T08:30:53.315Z,44.10
2022-07-29T08:33:20.363Z,45.20
2022-07-29T08:35:47.516Z,41.30
2022-07-29T08:38:14.598Z,40.80
2022-07-29T08:40:42.938Z,41.10
2022-07-29T08:43:10.682Z,42.20
2022-07-29T08:45:49.142Z,40.10
2022-07-29T08:48:24.719Z,41.40
2022-07-29T08:50:57.024Z,39.20
2022-07-29T08:53:27.510Z,39.40
2022-07-29T08:55:54.944Z,39.60
2022-07-29T08:58:25.548Z,39.30
2022-07-29T09:00:55.547Z,38.90
2022-07-29T09:03:25.733Z,37.70
2022-07-29T09:05:53.627Z,39.60
2022-07-29T09:08:21.249Z,39.50
2022-07-29T09:10:49.161Z,37.70
2022-07-29T09:13:16.273Z,39.40
2022-07-29T09:15:43.350Z,38.10
2022-07-29T09:18:19.375Z,38.20
2022-07-29T09:21:15.930Z,38.40
2022-07-29T09:24:00.224Z,38.40
2022-07-29T09:26:38.719Z,38.10
2022-07-29T09:29:13.739Z,37.60
2022-07-29T09:31:43.209Z,37.20
2022-07-29T09:34:11.688Z,38.60
2022-07-29T09:36:43.693Z,36.90
2022-07-29T09:39:11.075Z,36.90
2022-07-29T09:41:55.146Z,37.40
2022-07-29T09:44:24.081Z,37.80
2022-07-29T09:47:09.519Z,38.30
2022-07-29T09:49:50.788Z,37.80
2022-07-29T09:52:17.821Z,38.60
2022-07-29T09:54:45.103Z,36.20
2022-07-29T09:57:32.458Z,35.80
2022-07-29T10:00:06.786Z,38.20
2022-07-29T10:02:37.152Z,37.00
2022-07-29T10:05:07.207Z,35.00
2022-07-29T10:07:53.520Z,35.60
2022-07-29T10:10:24.301Z,35.10
2022-07-29T10:12:56.477Z,34.90
2022-07-29T10:15:25.833Z,34.80
2022-07-29T10:17:55.140Z,34.90
2022-07-29T10:20:23.714Z,35.60
2022-07-29T10:22:53.724Z,34.00
2022-07-29T10:25:21.796Z,34.00
2022-07-29T10:27:50.191Z,32.80
2022-07-29T10:30:18.220Z,33.80
2022-07-29T10:33:04.754Z,31.80
2022-07-29T10:36:06.589Z,31.90
2022-07-29T10:38:47.141Z,32.60
2022-07-29T10:41:27.629Z,33.00
2022-07-29T10:44:07.103Z,33.10
2022-07-29T10:46:41.294Z,33.30
2022-07-29T10:49:25.234Z,33.00
2022-07-29T10:52:03.547Z,32.90
2022-07-29T10:54:43.877Z,33.80
2022-07-29T10:57:40.515Z,32.60
2022-07-29T11:00:11.258Z,32.30
2022-07-29T11:02:43.558Z,32.80
2022-07-29T11:05:16.655Z,32.40
2022-07-29T11:08:20.534Z,31.90
2022-07-29T11:10:49.974Z,32.30
2022-07-29T11:13:49.390Z,32.70
2022-07-29T11:16:20.209Z,32.00
2022-07-29T11:19:13.874Z,33.30
2022-07-29T11:21:54.729Z,34.70
2022-07-29T11:24:32.273Z,33.50
2022-07-29T11:27:21.370Z,34.00
2022-07-29T11:29:58.644Z,33.00
2022-07-29T11:32:39.156Z,34.10
2022-07-29T11:35:16.641Z,32.70
2022-07-29T11:37:50.777Z,32.50
2022-07-29T11:40:23.122Z,31.90
2022-07-29T11:42:52.030Z,33.30
2022-07-29T11:45:44.413Z,31.80
2022-07-29T11:48:32.196Z,34.10
2022-07-29T11:51:00.741Z,34.10
2022-07-29T11:53:32.830Z,33.20
2022-07-29T11:56:22.851Z,33.50
2022-07-29T11:59:05.609Z,35.10
2022-07-29T12:01:35.989Z,35.00
2022-07-29T12:04:08.277Z,35.90
2022-07-29T12:06:38.370Z,34.20
2022-07-29T12:09:14.566Z,35.10
2022-07-29T12:11:42.279Z,34.30
2022-07-29T12:14:30.383Z,34.20
2022-07-29T12:16:58.483Z,34.50
2022-07-29T12:19:26.415Z,32.70
2022-07-29T12:21:59.449Z,35.00
2022-07-29T12:24:27.464Z,32.30
2022-07-29T12:26:55.813Z,31.90
2022-07-29T12:29:33.681Z,35.00
2022-07-29T12:32:04.801Z,33.90
2022-07-29T12:34:32.884Z,32.70
2022-07-29T12:37:00.220Z,31.40
2022-07-29T12:39:29.072Z,32.10
2022-07-29T12:42:04.447Z,32.20
2022-07-29T12:44:52.575Z,31.70
2022-07-29T12:47:20.643Z,30.20
2022-07-29T12:49:48.450Z,29.40
2022-07-29T12:52:26.538Z,30.90
2022-07-29T12:54:53.877Z,32.30
2022-07-29T12:57:20.887Z,30.10
2022-07-29T13:00:11.153Z,30.50
2022-07-29T13:02:39.391Z,30.50
2022-07-29T13:05:09.326Z,29.30
2022-07-29T13:07:55.463Z,30.40
2022-07-29T13:10:26.187Z,30.60
2022-07-29T13:13:14.024Z,31.90
2022-07-29T13:15:49.586Z,33.00
2022-07-29T13:18:35.065Z,31.20
2022-07-29T13:21:16.561Z,31.90
2022-07-29T13:23:45.696Z,32.10
2022-07-29T13:26:13.235Z,31.90
2022-07-29T13:28:41.027Z,31.30
2022-07-29T13:31:11.552Z,33.40
2022-07-29T13:33:38.897Z,31.20
2022-07-29T13:36:06.135Z,33.00
2022-07-29T13:38:33.133Z,31.30
2022-07-29T13:41:00.910Z,30.80
2022-07-29T13:43:28.019Z,30.20
2022-07-29T13:45:55.290Z,30.50
2022-07-29T13:48:22.385Z,30.70
2022-07-29T13:50:49.654Z,31.10
2022-07-29T13:53:20.387Z,32.90
2022-07-29T13:55:54.943Z,31.30
2022-07-29T13:58:22.069Z,31.40
2022-07-29T14:00:51.284Z,33.80
2022-07-29T14:03:18.731Z,32.70
2022-07-29T14:05:45.875Z,31.50
2022-07-29T14:08:12.838Z,31.60
2022-07-29T14:10:40.086Z,30.80
2022-07-29T14:13:07.150Z,31.70
2022-07-29T14:15:52.075Z,29.90
2022-07-29T14:18:19.725Z,31.50
2022-07-29T14:20:48.064Z,30.50
2022-07-29T14:23:20.197Z,31.20
2022-07-29T14:25:47.993Z,31.20
2022-07-29T14:28:17.077Z,31.70
2022-07-29T14:30:44.383Z,32.70
2022-07-29T14:33:11.567Z,32.10
2022-07-29T14:35:38.788Z,31.70
2022-07-29T14:38:05.867Z,32.40
2022-07-29T14:40:33.651Z,32.40
2022-07-29T14:43:00.881Z,33.00
2022-07-29T14:45:29.336Z,32.50
2022-07-29T14:47:57.217Z,33.00
2022-07-29T14:50:32.043Z,33.30
2022-07-29T14:53:01.951Z,32.40
2022-07-29T14:55:30.037Z,34.10
2022-07-29T14:58:06.424Z,34.40
2022-07-29T15:00:38.000Z,33.40
2022-07-29T15:03:06.175Z,34.30
2022-07-29T15:05:33.654Z,34.60
2022-07-29T15:08:01.664Z,34.30
2022-07-29T15:10:29.135Z,35.10
2022-07-29T15:12:57.452Z,34.70
2022-07-29T15:15:24.569Z,34.70
2022-07-29T15:17:51.856Z,34.60
2022-07-29T15:20:19.621Z,35.80
2022-07-29T15:22:47.145Z,35.20
2022-07-29T15:25:14.189Z,36.90
2022-07-29T15:27:41.236Z,37.60
2022-07-29T15:30:29.058Z,37.80
2022-07-29T15:33:00.486Z,37.40
2022-07-29T15:35:27.526Z,38.00
2022-07-29T15:37:54.642Z,38.50
2022-07-29T15:40:21.686Z,37.60
2022-07-29T15:42:49.936Z,38.90
2022-07-29T15:45:16.934Z,39.90
2022-07-29T15:47:44.797Z,38.90
2022-07-29T15:50:15.980Z,40.10
2022-07-29T15:52:43.783Z,40.30
2022-07-29T15:55:11.418Z,41.40
2022-07-29T15:57:38.676Z,41.70
2022-07-29T16:00:06.270Z,40.90
2022-07-29T16:02:36.105Z,40.90
2022-07-29T16:05:03.172Z,39.80
2022-07-29T16:07:31.410Z,41.00
2022-07-29T16:10:00.007Z,42.60
2022-07-29T16:12:27.109Z,44.80
2022-07-29T16:14:54.181Z,46.00
2022-07-29T16:17:22.976Z,47.60
2022-07-29T16:19:50.269Z,49.20
2022-07-29T16:22:17.310Z,48.40
2022-07-29T16:24:44.600Z,50.20
2022-07-29T16:27:11.772Z,51.40
2022-07-29T16:29:38.811Z,51.20
2022-07-29T16:32:06.685Z,51.60
2022-07-29T16:34:33.976Z,51.40
2022-07-29T16:37:01.167Z,51.50
2022-07-29T16:39:28.744Z,52.50
2022-07-29T16:41:59.900Z,51.90
2022-07-29T16:44:28.693Z,51.90
2022-07-29T16:46:59.071Z,50.90
2022-07-29T16:49:27.438Z,51.60
2022-07-29T16:51:54.993Z,52.80
2022-07-29T16:54:22.151Z,52.30
2022-07-29T16:56:49.213Z,53.30
2022-07-29T16:59:16.348Z,52.40
2022-07-29T17:01:43.444Z,53.30
2022-07-29T17:04:12.274Z,52.10
2022-07-29T17:06:40.363Z,52.80
2022-07-29T17:09:09.609Z,53.10
2022-07-29T17:11:52.325Z,53.30
2022-07-29T17:14:26.040Z,54.30
2022-07-29T17:17:00.313Z,54.20
2022-07-29T17:19:35.640Z,53.70
2022-07-29T17:22:18.777Z,53.60
2022-07-29T17:24:47.100Z,54.90
2022-07-29T17:27:14.404Z,53.90
2022-07-29T17:29:41.692Z,55.30
2022-07-29T17:32:12.582Z,55.20
2022-07-29T17:34:41.225Z,56.90
2022-07-29T17:37:10.919Z,56.70
2022-07-29T17:39:41.126Z,56.60
2022-07-29T17:42:10.227Z,56.50
2022-07-29T17:44:37.435Z,56.30
2022-07-29T17:47:05.785Z,56.40
2022-07-29T17:49:36.303Z,57.20
2022-07-29T17:52:04.958Z,57.80
2022-07-29T17:54:32.097Z,57.80
2022-07-29T17:56:59.388Z,58.30
2022-07-29T17:59:27.452Z,59.10
2022-07-29T18:01:54.676Z,58.90
2022-07-29T18:04:23.685Z,59.30
2022-07-29T18:06:50.782Z,60.60
2022-07-29T18:09:17.834Z,61.40
2022-07-29T18:11:45.873Z,62.10
2022-07-29T18:14:13.652Z,62.00
2022-07-29T18:16:40.977Z,62.00
2022-07-29T18:19:08.254Z,62.80
2022-07-29T18:21:42.654Z,62.90
2022-07-29T18:24:18.381Z,63.10
2022-07-29T18:26:45.479Z,63.40
2022-07-29T18:29:12.552Z,63.70
2022-07-29T18:31:41.349Z,64.80
2022-07-29T18:34:08.586Z,65.00
2022-07-29T18:36:35.595Z,65.40
2022-07-29T18:39:02.774Z,65.80
2022-07-29T18:41:29.838Z,66.40
2022-07-29T18:43:56.827Z,66.50
2022-07-29T18:46:25.489Z,67.60
2022-07-29T18:48:52.747Z,67.00
2022-07-29T18:51:20.006Z,68.20
2022-07-29T18:53:47.107Z,69.10
2022-07-29T18:56:14.211Z,69.70
2022-07-29T18:58:41.192Z,70.40
2022-07-29T19:01:08.389Z,70.30
2022-07-29T19:03:35.494Z,70.00
2022-07-29T19:06:02.635Z,70.80
2022-07-29T19:08:29.789Z,71.40
2022-07-29T19:10:57.274Z,72.20
2022-07-29T19:13:24.490Z,72.20
2022-07-29T19:15:51.519Z,72.80
2022-07-29T19:18:18.638Z,72.50
2022-07-29T19:20:45.632Z,72.60
2022-07-29T19:23:12.856Z,74.60
2022-07-29T19:25:53.805Z,74.60
2022-07-29T19:28:21.741Z,75.30
2022-07-29T19:30:49.080Z,76.50
2022-07-29T19:33:17.798Z,76.40
2022-07-29T19:35:52.843Z,76.70
2022-07-29T19:38:22.278Z,77.50
2022-07-29T19:40:49.342Z,76.90
2022-07-29T19:43:51.297Z,77.70
2022-07-29T19:46:03.706Z,77.80
2022-07-29T19:48:30.996Z,78.10
2022-07-29T19:50:58.006Z,78.10
2022-07-29T19:53:25.005Z,77.90
2022-07-29T19:55:52.221Z,78.00
2022-07-29T19:58:19.523Z,78.60
2022-07-29T20:00:49.542Z,78.50
2022-07-29T20:03:16.863Z,78.70
2022-07-29T20:05:47.789Z,79.00
2022-07-29T20:08:15.186Z,79.50
2022-07-29T20:10:42.190Z,79.00
2022-07-29T20:13:09.433Z,79.20
2022-07-29T20:15:36.617Z,80.00
2022-07-29T20:18:03.951Z,79.60
2022-07-29T20:20:31.439Z,80.00
2022-07-29T20:22:59.457Z,79.80
2022-07-29T20:25:26.535Z,79.60
2022-07-29T20:27:54.446Z,80.50
2022-07-29T20:30:22.602Z,80.20
2022-07-29T20:32:50.037Z,81.00
2022-07-29T20:35:20.226Z,81.10
2022-07-29T20:37:56.213Z,80.50
2022-07-29T20:40:25.163Z,80.40
2022-07-29T20:42:52.430Z,80.60
2022-07-29T20:45:20.213Z,80.40
2022-07-29T20:47:47.302Z,81.50
2022-07-29T20:50:14.331Z,81.90
2022-07-29T20:52:43.597Z,82.30
2022-07-29T20:55:11.114Z,82.60
2022-07-29T20:57:39.885Z,82.50
2022-07-29T21:00:07.948Z,83.30
2022-07-29T21:02:35.358Z,82.80
2022-07-29T21:05:02.731Z,82.50
2022-07-29T21:07:29.860Z,82.80
2022-07-29T21:09:57.039Z,83.40
2022-07-29T21:12:24.228Z,83.00
2022-07-29T21:14:52.119Z,82.90
2022-07-29T21:17:22.761Z,82.90
2022-07-29T21:19:55.416Z,82.80
2022-07-29T21:22:22.577Z,83.30
2022-07-29T21:24:50.653Z,83.50
2022-07-29T21:27:38.325Z,83.30
2022-07-29T21:30:07.989Z,83.80
2022-07-29T21:32:35.162Z,83.50
2022-07-29T21:35:02.238Z,85.20
2022-07-29T21:37:29.264Z,85.70
2022-07-29T21:39:56.373Z,85.80
2022-07-29T21:42:23.411Z,85.60
2022-07-29T21:44:51.624Z,86.00
2022-07-29T21:47:18.645Z,85.80
2022-07-29T21:49:46.626Z,85.60
2022-07-29T21:52:14.433Z,86.40
2022-07-29T21:54:41.995Z,86.00
2022-07-29T21:57:09.609Z,85.90
2022-07-29T21:59:36.807Z,86.10
2022-07-29T22:02:04.035Z,86.20
2022-07-29T22:04:31.607Z,86.40
2022-07-29T22:06:59.296Z,86.70
2022-07-29T22:09:27.205Z,86.60
2022-07-29T22:11:54.862Z,86.10
2022-07-29T22:14:22.344Z,85.90
2022-07-29T22:16:49.488Z,86.10
2022-07-29T22:19:16.608Z,86.00
2022-07-29T22:21:43.858Z,86.20
2022-07-29T22:24:11.644Z,86.40
2022-07-29T22:26:38.966Z,86.70
2022-07-29T22:29:06.737Z,86.80
2022-07-29T22:31:33.812Z,87.10
2022-07-29T22:34:01.069Z,87.20
2022-07-29T22:36:28.048Z,87.60
2022-07-29T22:38:55.083Z,87.00
2022-07-29T22:41:22.079Z,87.80
2022-07-29T22:43:49.140Z,88.00
2022-07-29T22:46:16.281Z,86.90
2022-07-29T22:48:43.428Z,87.50
2022-07-29T22:51:10.506Z,87.10
2022-07-29T22:53:37.526Z,87.60
2022-07-29T22:56:04.772Z,88.60
2022-07-29T22:58:31.814Z,88.00
2022-07-29T23:00:58.988Z,87.50
2022-07-29T23:03:26.049Z,88.00
2022-07-29T23:05:53.078Z,87.70
2022-07-29T23:08:20.966Z,88.00
2022-07-29T23:10:48.325Z,87.30
2022-07-29T23:13:15.502Z,87.50
2022-07-29T23:15:42.492Z,87.80
2022-07-29T23:18:09.919Z,87.60
2022-07-29T23:20:36.973Z,87.70
2022-07-29T23:23:04.318Z,87.30
2022-07-29T23:25:31.681Z,87.10
2022-07-29T23:27:58.732Z,87.70
2022-07-29T23:30:25.952Z,87.80
2022-07-29T23:32:53.375Z,88.00
2022-07-29T23:35:20.419Z,88.10
2022-07-29T23:37:47.612Z,88.50
2022-07-29T23:40:15.165Z,88.70
2022-07-29T23:42:43.167Z,89.00
2022-07-29T23:45:11.815Z,89.80
2022-07-29T23:47:39.016Z,88.90
2022-07-29T23:50:09.803Z,89.30
2022-07-29T23:52:36.819Z,88.70
2022-07-29T23:55:36.982Z,88.70
2022-07-29T23:57:51.962Z,88.80
